Terminal Aerodrome Forecast
Issued by NWS

Home | Current Version | Previous Version | Graphics & Text | Print | Product List | Glossary On
Versions: 1 2 3 4 5 6 7 8 9 10 11 12 13 14 15 16 17 18 19 20 21
000
FTUS43 KTOP 240520
TAFFOE
TAF
KFOE 240520Z 2406/2506 15007KT P6SM FEW020 BKN200
     FM240800 16007KT P6SM BKN022
     FM241200 16007KT 6SM SHRA BR VCTS BKN012 OVC050CB
     FM241600 17009KT P6SM SCT020 BKN150=

USA.gov is the U.S. government's official web portal to all federal, state and local government web resources and services.